createdAt,value
2023-11-23T00:00:21.783Z,9.32
2023-11-23T00:05:45.451Z,9.75
2023-11-23T00:10:49.144Z,9.05
2023-11-23T00:15:54.250Z,8.82
2023-11-23T00:20:58.944Z,9.05
2023-11-23T00:31:09.817Z,8.40
2023-11-23T00:36:14.950Z,9.77
2023-11-23T00:41:19.196Z,7.93
2023-11-23T00:46:24.241Z,8.55
2023-11-23T00:51:28.530Z,7.90
2023-11-23T00:56:32.150Z,7.95
2023-11-23T01:01:37.395Z,7.60
2023-11-23T01:06:42.915Z,8.20
2023-11-23T01:11:46.586Z,7.70
2023-11-23T01:16:51.772Z,7.65
2023-11-23T01:21:55.681Z,7.65
2023-11-23T01:26:59.466Z,7.40
2023-11-23T01:32:05.105Z,7.43
2023-11-23T01:37:09.379Z,7.03
2023-11-23T01:42:13.001Z,7.43
2023-11-23T01:47:18.124Z,7.10
2023-11-23T01:52:21.877Z,7.43
2023-11-23T01:57:26.767Z,6.82
2023-11-23T02:02:32.402Z,7.30
2023-11-23T02:07:36.185Z,7.18
2023-11-23T02:12:40.613Z,6.60
2023-11-23T02:17:45.806Z,6.60
2023-11-23T02:22:49.897Z,6.65
2023-11-23T02:27:55.346Z,5.90
2023-11-23T02:32:58.988Z,6.28
2023-11-23T02:38:02.902Z,6.20
2023-11-23T02:43:09.125Z,5.85
2023-11-23T02:48:12.787Z,5.53
2023-11-23T02:53:29.212Z,5.82
2023-11-23T02:58:34.916Z,5.85
2023-11-23T03:03:39.552Z,5.70
2023-11-23T03:08:43.366Z,5.07
2023-11-23T03:13:48.614Z,5.60
2023-11-23T03:18:52.509Z,4.85
2023-11-23T03:23:57.288Z,5.35
2023-11-23T03:29:02.571Z,5.38
2023-11-23T03:34:07.109Z,5.05
2023-11-23T03:39:11.275Z,4.55
2023-11-23T03:44:16.940Z,5.22
2023-11-23T03:49:20.848Z,4.35
2023-11-23T03:54:24.771Z,4.35
2023-11-23T03:59:30.330Z,4.25
2023-11-23T04:04:35.856Z,4.47
2023-11-23T04:09:39.496Z,4.30
2023-11-23T04:14:44.676Z,4.55
2023-11-23T04:19:49.648Z,5.00
2023-11-23T04:24:53.413Z,5.15
2023-11-23T04:29:58.506Z,4.55
2023-11-23T04:35:02.302Z,4.30
2023-11-23T04:40:07.636Z,4.55
2023-11-23T04:45:13.323Z,4.50
2023-11-23T04:50:20.139Z,4.80
2023-11-23T04:55:25.282Z,5.63
2023-11-23T05:00:31.541Z,4.25
2023-11-23T05:05:35.244Z,3.83
2023-11-23T05:10:38.970Z,4.85
2023-11-23T05:15:44.116Z,4.35
2023-11-23T05:20:47.912Z,3.80
2023-11-23T05:25:51.706Z,4.50
2023-11-23T05:30:56.762Z,4.30
2023-11-23T05:36:00.520Z,5.03
2023-11-23T05:41:04.324Z,4.38
2023-11-23T05:46:12.442Z,4.65
2023-11-23T05:51:17.656Z,5.15
2023-11-23T05:56:22.049Z,5.50
2023-11-23T06:01:27.103Z,5.07
2023-11-23T06:06:31.684Z,5.93
2023-11-23T06:16:40.128Z,5.18
2023-11-23T06:21:43.784Z,7.47
2023-11-23T06:26:47.485Z,6.13
2023-11-23T06:31:52.594Z,6.10
2023-11-23T06:36:56.238Z,6.07
2023-11-23T06:42:00.406Z,5.43
2023-11-23T06:47:06.250Z,6.72
2023-11-23T06:52:09.943Z,6.47
2023-11-23T06:57:14.702Z,6.68
2023-11-23T07:02:19.769Z,6.75
2023-11-23T07:07:23.433Z,6.10
2023-11-23T07:12:27.777Z,6.43
2023-11-23T07:17:33.087Z,5.75
2023-11-23T07:22:36.928Z,7.10
2023-11-23T07:27:40.737Z,8.13
2023-11-23T07:32:45.907Z,7.13
2023-11-23T07:37:49.925Z,6.78
2023-11-23T07:42:53.737Z,7.57
2023-11-23T07:47:58.774Z,6.45
2023-11-23T07:53:02.766Z,7.47
2023-11-23T07:58:06.600Z,6.78
2023-11-23T08:03:12.090Z,7.45
2023-11-23T08:08:15.784Z,7.68
2023-11-23T08:13:21.516Z,6.55
2023-11-23T08:18:36.501Z,6.35
2023-11-23T08:23:46.897Z,6.85
2023-11-23T08:28:50.735Z,6.75
2023-11-23T08:33:55.819Z,6.25
2023-11-23T08:38:59.539Z,6.20
2023-11-23T08:44:05.572Z,5.60
2023-11-23T08:49:11.828Z,6.63
2023-11-23T08:54:15.713Z,6.40
2023-11-23T08:59:19.467Z,6.65
2023-11-23T09:04:30.571Z,6.07
2023-11-23T09:09:37.324Z,6.28
2023-11-23T09:14:48.533Z,6.07
2023-11-23T09:19:54.973Z,5.90
2023-11-23T09:24:58.688Z,6.68
2023-11-23T09:30:04.725Z,18.65
2023-11-23T09:35:11.808Z,6.60
2023-11-23T09:40:20.326Z,6.85
2023-11-23T09:45:26.725Z,6.55
2023-11-23T09:50:35.663Z,6.93
2023-11-23T09:55:42.510Z,6.60
2023-11-23T10:00:46.518Z,6.57
2023-11-23T10:05:52.381Z,6.45
2023-11-23T10:10:56.109Z,6.45
2023-11-23T10:15:59.824Z,6.05
2023-11-23T10:21:05.319Z,6.32
2023-11-23T10:26:10.328Z,6.25
2023-11-23T10:31:14.319Z,5.43
2023-11-23T10:36:22.321Z,5.97
2023-11-23T10:41:26.169Z,6.13
2023-11-23T10:46:30.315Z,7.90
2023-11-23T10:51:35.870Z,6.85
2023-11-23T10:56:41.903Z,6.10
2023-11-23T11:01:46.704Z,6.70
2023-11-23T11:06:55.572Z,5.78
2023-11-23T11:12:02.166Z,12.73
2023-11-23T11:17:07.531Z,4.97
2023-11-23T11:22:15.159Z,5.20
2023-11-23T11:27:21.534Z,5.38
2023-11-23T11:32:25.266Z,5.47
2023-11-23T11:37:32.261Z,5.22
2023-11-23T11:42:39.107Z,4.95
2023-11-23T11:47:43.301Z,4.30
2023-11-23T11:52:49.093Z,4.78
2023-11-23T11:57:53.106Z,5.00
2023-11-23T12:02:56.840Z,5.20
2023-11-23T12:08:02.099Z,4.68
2023-11-23T12:13:05.779Z,5.07
2023-11-23T12:18:09.524Z,5.03
2023-11-23T12:23:14.899Z,4.97
2023-11-23T12:28:21.836Z,5.13
2023-11-23T12:33:25.558Z,4.72
2023-11-23T12:38:30.624Z,5.18
2023-11-23T12:43:35.228Z,4.63
2023-11-23T12:48:39.009Z,5.45
2023-11-23T12:53:44.113Z,5.07
2023-11-23T12:58:48.727Z,4.78
2023-11-23T13:03:52.723Z,5.00
2023-11-23T13:08:57.832Z,4.82
2023-11-23T13:14:01.525Z,5.00
2023-11-23T13:19:16.973Z,5.72
2023-11-23T13:24:31.955Z,5.45
2023-11-23T13:29:36.570Z,6.40
2023-11-23T13:34:40.315Z,5.82
2023-11-23T13:39:45.319Z,5.15
2023-11-23T13:44:49.237Z,5.38
2023-11-23T13:49:53.066Z,5.55
2023-11-23T13:54:59.237Z,5.07
2023-11-23T14:00:12.803Z,5.00
2023-11-23T14:05:17.117Z,5.63
2023-11-23T14:10:22.763Z,5.22
2023-11-23T14:15:27.135Z,4.50
2023-11-23T14:25:35.946Z,4.95
2023-11-23T14:30:39.717Z,4.50
2023-11-23T14:35:43.673Z,4.70
2023-11-23T14:40:49.204Z,5.68
2023-11-23T14:45:52.973Z,5.47
2023-11-23T14:50:56.687Z,5.60
2023-11-23T14:56:01.941Z,5.18
2023-11-23T15:01:05.722Z,5.05
2023-11-23T15:06:10.023Z,9.82
2023-11-23T21:37:50.115Z,3.40
2023-11-23T21:42:54.127Z,1.73
2023-11-23T21:47:57.877Z,2.03
2023-11-23T21:53:03.042Z,2.10
2023-11-23T21:58:07.071Z,2.47
2023-11-23T22:03:10.904Z,1.77
2023-11-23T22:08:16.152Z,1.80
2023-11-23T22:13:19.868Z,1.65
2023-11-23T22:18:26.497Z,1.83
2023-11-23T22:23:32.989Z,2.13
2023-11-23T22:28:37.220Z,2.17
2023-11-23T22:33:43.341Z,2.22
2023-11-23T22:38:51.822Z,2.53
2023-11-23T22:43:56.783Z,2.22
2023-11-23T22:49:00.595Z,1.65
2023-11-23T22:54:05.813Z,2.10
2023-11-23T22:59:09.603Z,1.80
2023-11-23T23:04:13.392Z,1.90
2023-11-23T23:09:20.039Z,2.47
2023-11-23T23:14:24.994Z,2.00
2023-11-23T23:19:28.736Z,1.73
2023-11-23T23:24:34.230Z,1.92
2023-11-23T23:29:37.834Z,2.10
2023-11-23T23:34:42.214Z,2.58
2023-11-23T23:39:48.359Z,2.20
2023-11-23T23:44:54.432Z,1.90
2023-11-23T23:49:59.663Z,2.13
2023-11-23T23:55:07.527Z,2.00
